sensor_id;sensor_type;location;lat;lon;timestamp;P1;durP1;ratioP1;P2;durP2;ratioP2
31531;SDS011;23787;52.180;5.288;2022-08-19T00:03:59;164.70;;;149.30;;
31531;SDS011;23787;52.180;5.288;2022-08-19T00:18:58;187.70;;;171.30;;
31531;SDS011;23787;52.180;5.288;2022-08-19T00:23:58;200.80;;;182.90;;
31531;SDS011;23787;52.180;5.288;2022-08-19T00:28:58;200.80;;;182.90;;
31531;SDS011;23787;52.180;5.288;2022-08-19T00:33:58;200.80;;;182.90;;
31531;SDS011;23787;52.180;5.288;2022-08-19T00:48:59;183.60;;;168.90;;
31531;SDS011;23787;52.180;5.288;2022-08-19T00:53:58;202.30;;;184.60;;
31531;SDS011;23787;52.180;5.288;2022-08-19T00:58:59;202.30;;;184.60;;
31531;SDS011;23787;52.180;5.288;2022-08-19T01:08:58;222.80;;;204.40;;
31531;SDS011;23787;52.180;5.288;2022-08-19T01:18:58;222.80;;;204.40;;
31531;SDS011;23787;52.180;5.288;2022-08-19T01:28:58;218.80;;;201.20;;
31531;SDS011;23787;52.180;5.288;2022-08-19T01:34:00;218.80;;;201.20;;
31531;SDS011;23787;52.180;5.288;2022-08-19T01:48:59;196.30;;;179.40;;
31531;SDS011;23787;52.180;5.288;2022-08-19T01:53:58;251.60;;;231.00;;
31531;SDS011;23787;52.180;5.288;2022-08-19T01:59:00;251.60;;;231.00;;
31531;SDS011;23787;52.180;5.288;2022-08-19T02:03:58;251.60;;;231.00;;
31531;SDS011;23787;52.180;5.288;2022-08-19T02:13:59;254.10;;;232.10;;
31531;SDS011;23787;52.180;5.288;2022-08-19T02:38:58;266.20;;;244.80;;
31531;SDS011;23787;52.180;5.288;2022-08-19T02:44:00;266.20;;;244.80;;
31531;SDS011;23787;52.180;5.288;2022-08-19T02:49:00;266.20;;;244.80;;
31531;SDS011;23787;52.180;5.288;2022-08-19T03:04:02;281.70;;;259.60;;
31531;SDS011;23787;52.180;5.288;2022-08-19T03:08:58;270.00;;;248.70;;
31531;SDS011;23787;52.180;5.288;2022-08-19T03:14:00;270.00;;;248.70;;
31531;SDS011;23787;52.180;5.288;2022-08-19T03:24:00;284.70;;;261.00;;
31531;SDS011;23787;52.180;5.288;2022-08-19T03:29:02;284.70;;;261.00;;
31531;SDS011;23787;52.180;5.288;2022-08-19T03:33:58;284.70;;;261.00;;
31531;SDS011;23787;52.180;5.288;2022-08-19T03:49:00;306.80;;;282.40;;
31531;SDS011;23787;52.180;5.288;2022-08-19T03:54:00;316.50;;;291.30;;
31531;SDS011;23787;52.180;5.288;2022-08-19T03:58:58;316.50;;;291.30;;
31531;SDS011;23787;52.180;5.288;2022-08-19T04:09:00;320.00;;;293.90;;
31531;SDS011;23787;52.180;5.288;2022-08-19T04:13:59;320.00;;;293.90;;
31531;SDS011;23787;52.180;5.288;2022-08-19T04:19:00;320.00;;;293.90;;
31531;SDS011;23787;52.180;5.288;2022-08-19T04:23:59;329.20;;;303.90;;
31531;SDS011;23787;52.180;5.288;2022-08-19T04:39:00;301.50;;;279.10;;
31531;SDS011;23787;52.180;5.288;2022-08-19T04:48:59;301.50;;;279.10;;
31531;SDS011;23787;52.180;5.288;2022-08-19T04:53:59;352.10;;;324.60;;
31531;SDS011;23787;52.180;5.288;2022-08-19T05:03:59;352.10;;;324.60;;
31531;SDS011;23787;52.180;5.288;2022-08-19T05:08:59;356.60;;;330.60;;
31531;SDS011;23787;52.180;5.288;2022-08-19T05:13:58;356.60;;;330.60;;
31531;SDS011;23787;52.180;5.288;2022-08-19T05:18:58;356.60;;;330.60;;
31531;SDS011;23787;52.180;5.288;2022-08-19T05:23:58;315.80;;;292.50;;
31531;SDS011;23787;52.180;5.288;2022-08-19T05:28:58;315.80;;;292.50;;
31531;SDS011;23787;52.180;5.288;2022-08-19T05:33:58;315.80;;;292.50;;
31531;SDS011;23787;52.180;5.288;2022-08-19T05:38:58;316.80;;;292.00;;
31531;SDS011;23787;52.180;5.288;2022-08-19T05:44:01;316.80;;;292.00;;
31531;SDS011;23787;52.180;5.288;2022-08-19T05:48:58;316.80;;;292.00;;
31531;SDS011;23787;52.180;5.288;2022-08-19T05:53:58;358.10;;;331.40;;
31531;SDS011;23787;52.180;5.288;2022-08-19T05:58:58;358.10;;;331.40;;
31531;SDS011;23787;52.180;5.288;2022-08-19T06:03:58;358.10;;;331.40;;
31531;SDS011;23787;52.180;5.288;2022-08-19T06:08:58;330.60;;;305.60;;
31531;SDS011;23787;52.180;5.288;2022-08-19T06:14:01;330.60;;;305.60;;
31531;SDS011;23787;52.180;5.288;2022-08-19T06:19:00;330.60;;;305.60;;
31531;SDS011;23787;52.180;5.288;2022-08-19T06:23:59;273.20;;;252.20;;
31531;SDS011;23787;52.180;5.288;2022-08-19T06:28:58;273.20;;;252.20;;
31531;SDS011;23787;52.180;5.288;2022-08-19T06:33:59;273.20;;;252.20;;
31531;SDS011;23787;52.180;5.288;2022-08-19T06:38:59;224.80;;;206.30;;
31531;SDS011;23787;52.180;5.288;2022-08-19T06:43:58;224.80;;;206.30;;
31531;SDS011;23787;52.180;5.288;2022-08-19T06:48:58;224.80;;;206.30;;
31531;SDS011;23787;52.180;5.288;2022-08-19T06:53:58;177.20;;;162.20;;
31531;SDS011;23787;52.180;5.288;2022-08-19T07:04:02;177.20;;;162.20;;
31531;SDS011;23787;52.180;5.288;2022-08-19T07:13:58;158.20;;;144.20;;
31531;SDS011;23787;52.180;5.288;2022-08-19T07:18:58;158.20;;;144.20;;
31531;SDS011;23787;52.180;5.288;2022-08-19T07:23:59;140.80;;;127.60;;
31531;SDS011;23787;52.180;5.288;2022-08-19T07:28:58;140.80;;;127.60;;
31531;SDS011;23787;52.180;5.288;2022-08-19T07:33:58;140.80;;;127.60;;
31531;SDS011;23787;52.180;5.288;2022-08-19T07:39:01;135.40;;;123.10;;
31531;SDS011;23787;52.180;5.288;2022-08-19T07:43:59;135.40;;;123.10;;
31531;SDS011;23787;52.180;5.288;2022-08-19T07:48:58;135.40;;;123.10;;
31531;SDS011;23787;52.180;5.288;2022-08-19T07:58:58;122.30;;;111.30;;
31531;SDS011;23787;52.180;5.288;2022-08-19T08:03:58;122.30;;;111.30;;
31531;SDS011;23787;52.180;5.288;2022-08-19T08:08:59;94.80;;;86.30;;
31531;SDS011;23787;52.180;5.288;2022-08-19T08:13:58;94.80;;;86.30;;
31531;SDS011;23787;52.180;5.288;2022-08-19T08:18:59;94.80;;;86.30;;
31531;SDS011;23787;52.180;5.288;2022-08-19T08:23:58;76.50;;;69.70;;
31531;SDS011;23787;52.180;5.288;2022-08-19T08:28:58;76.50;;;69.70;;
31531;SDS011;23787;52.180;5.288;2022-08-19T08:33:58;76.50;;;69.70;;
31531;SDS011;23787;52.180;5.288;2022-08-19T08:38:58;71.70;;;65.10;;
31531;SDS011;23787;52.180;5.288;2022-08-19T08:43:58;71.70;;;65.10;;
31531;SDS011;23787;52.180;5.288;2022-08-19T08:49:04;71.70;;;65.10;;
31531;SDS011;23787;52.180;5.288;2022-08-19T08:53:59;62.20;;;56.00;;
31531;SDS011;23787;52.180;5.288;2022-08-19T08:59:03;62.20;;;56.00;;
31531;SDS011;23787;52.180;5.288;2022-08-19T09:03:58;62.20;;;56.00;;
31531;SDS011;23787;52.180;5.288;2022-08-19T09:09:03;48.20;;;43.90;;
31531;SDS011;23787;52.180;5.288;2022-08-19T09:14:10;48.20;;;43.90;;
31531;SDS011;23787;52.180;5.288;2022-08-19T09:19:02;48.20;;;43.90;;
31531;SDS011;23787;52.180;5.288;2022-08-19T09:23:58;22.70;;;20.90;;
31531;SDS011;23787;52.180;5.288;2022-08-19T09:28:58;22.70;;;20.90;;
31531;SDS011;23787;52.180;5.288;2022-08-19T09:33:59;22.70;;;20.90;;
31531;SDS011;23787;52.180;5.288;2022-08-19T09:43:59;22.00;;;19.80;;
31531;SDS011;23787;52.180;5.288;2022-08-19T09:48:59;22.00;;;19.80;;
31531;SDS011;23787;52.180;5.288;2022-08-19T09:52:09;29.40;;;26.70;;
31531;SDS011;23787;52.180;5.288;2022-08-19T09:54:00;29.40;;;26.70;;
31531;SDS011;23787;52.180;5.288;2022-08-19T09:58:59;29.40;;;26.70;;
31531;SDS011;23787;52.180;5.288;2022-08-19T10:03:59;29.40;;;26.70;;
31531;SDS011;23787;52.180;5.288;2022-08-19T10:08:59;20.70;;;18.70;;
31531;SDS011;23787;52.180;5.288;2022-08-19T10:13:58;20.70;;;18.70;;
31531;SDS011;23787;52.180;5.288;2022-08-19T10:18:58;20.70;;;18.70;;
31531;SDS011;23787;52.180;5.288;2022-08-19T10:24:02;17.30;;;15.60;;
31531;SDS011;23787;52.180;5.288;2022-08-19T10:28:59;17.30;;;15.60;;
31531;SDS011;23787;52.180;5.288;2022-08-19T10:33:59;17.30;;;15.60;;
31531;SDS011;23787;52.180;5.288;2022-08-19T10:39:00;19.30;;;16.90;;
31531;SDS011;23787;52.180;5.288;2022-08-19T10:44:00;19.30;;;16.90;;
31531;SDS011;23787;52.180;5.288;2022-08-19T10:48:59;19.30;;;16.90;;
31531;SDS011;23787;52.180;5.288;2022-08-19T10:54:00;15.10;;;13.60;;
31531;SDS011;23787;52.180;5.288;2022-08-19T10:58:58;15.10;;;13.60;;
31531;SDS011;23787;52.180;5.288;2022-08-19T11:04:00;15.10;;;13.60;;
31531;SDS011;23787;52.180;5.288;2022-08-19T11:08:58;12.90;;;11.80;;
31531;SDS011;23787;52.180;5.288;2022-08-19T11:13:58;12.90;;;11.80;;
31531;SDS011;23787;52.180;5.288;2022-08-19T11:18:59;12.90;;;11.80;;
31531;SDS011;23787;52.180;5.288;2022-08-19T11:24:00;15.80;;;14.30;;
31531;SDS011;23787;52.180;5.288;2022-08-19T11:28:59;15.80;;;14.30;;
31531;SDS011;23787;52.180;5.288;2022-08-19T11:34:00;15.80;;;14.30;;
31531;SDS011;23787;52.180;5.288;2022-08-19T11:38:59;12.60;;;11.40;;
31531;SDS011;23787;52.180;5.288;2022-08-19T11:43:58;12.60;;;11.40;;
31531;SDS011;23787;52.180;5.288;2022-08-19T11:48:59;12.60;;;11.40;;
31531;SDS011;23787;52.180;5.288;2022-08-19T11:54:00;17.20;;;15.50;;
31531;SDS011;23787;52.180;5.288;2022-08-19T11:59:00;17.20;;;15.50;;
31531;SDS011;23787;52.180;5.288;2022-08-19T12:03:59;17.20;;;15.50;;
31531;SDS011;23787;52.180;5.288;2022-08-19T12:09:04;9.60;;;8.20;;
31531;SDS011;23787;52.180;5.288;2022-08-19T12:13:58;9.60;;;8.20;;
31531;SDS011;23787;52.180;5.288;2022-08-19T12:18:59;9.60;;;8.20;;
31531;SDS011;23787;52.180;5.288;2022-08-19T12:24:00;14.10;;;12.90;;
31531;SDS011;23787;52.180;5.288;2022-08-19T12:28:59;14.10;;;12.90;;
31531;SDS011;23787;52.180;5.288;2022-08-19T12:33:58;14.10;;;12.90;;
31531;SDS011;23787;52.180;5.288;2022-08-19T12:38:58;11.80;;;10.60;;
31531;SDS011;23787;52.180;5.288;2022-08-19T12:43:58;11.80;;;10.60;;
31531;SDS011;23787;52.180;5.288;2022-08-19T12:53:58;14.30;;;12.80;;
31531;SDS011;23787;52.180;5.288;2022-08-19T12:59:00;14.30;;;12.80;;
31531;SDS011;23787;52.180;5.288;2022-08-19T13:03:58;14.30;;;12.80;;
31531;SDS011;23787;52.180;5.288;2022-08-19T13:08:58;16.20;;;14.60;;
31531;SDS011;23787;52.180;5.288;2022-08-19T13:13:59;16.20;;;14.60;;
31531;SDS011;23787;52.180;5.288;2022-08-19T13:18:58;16.20;;;14.60;;
31531;SDS011;23787;52.180;5.288;2022-08-19T13:23:58;18.40;;;16.70;;
31531;SDS011;23787;52.180;5.288;2022-08-19T13:28:58;18.40;;;16.70;;
31531;SDS011;23787;52.180;5.288;2022-08-19T13:33:58;18.40;;;16.70;;
31531;SDS011;23787;52.180;5.288;2022-08-19T13:38:59;18.50;;;16.90;;
31531;SDS011;23787;52.180;5.288;2022-08-19T13:43:58;18.50;;;16.90;;
31531;SDS011;23787;52.180;5.288;2022-08-19T13:48:58;18.50;;;16.90;;
31531;SDS011;23787;52.180;5.288;2022-08-19T13:53:58;21.00;;;19.10;;
31531;SDS011;23787;52.180;5.288;2022-08-19T13:58:58;21.00;;;19.10;;
31531;SDS011;23787;52.180;5.288;2022-08-19T14:03:58;21.00;;;19.10;;
31531;SDS011;23787;52.180;5.288;2022-08-19T14:08:59;14.90;;;13.80;;
31531;SDS011;23787;52.180;5.288;2022-08-19T14:13:58;14.90;;;13.80;;
31531;SDS011;23787;52.180;5.288;2022-08-19T14:18:58;14.90;;;13.80;;
31531;SDS011;23787;52.180;5.288;2022-08-19T14:23:58;19.00;;;17.20;;
31531;SDS011;23787;52.180;5.288;2022-08-19T14:28:58;19.00;;;17.20;;
31531;SDS011;23787;52.180;5.288;2022-08-19T14:33:58;19.00;;;17.20;;
31531;SDS011;23787;52.180;5.288;2022-08-19T14:38:58;20.30;;;18.20;;
31531;SDS011;23787;52.180;5.288;2022-08-19T14:43:58;20.30;;;18.20;;
31531;SDS011;23787;52.180;5.288;2022-08-19T14:48:58;20.30;;;18.20;;
31531;SDS011;23787;52.180;5.288;2022-08-19T14:53:59;18.80;;;17.30;;
31531;SDS011;23787;52.180;5.288;2022-08-19T14:58:58;18.80;;;17.30;;
31531;SDS011;23787;52.180;5.288;2022-08-19T15:03:58;18.80;;;17.30;;
31531;SDS011;23787;52.180;5.288;2022-08-19T15:08:59;14.00;;;12.70;;
31531;SDS011;23787;52.180;5.288;2022-08-19T15:28:59;24.10;;;22.00;;
31531;SDS011;23787;52.180;5.288;2022-08-19T15:33:58;24.10;;;22.00;;
31531;SDS011;23787;52.180;5.288;2022-08-19T15:38:58;16.20;;;14.60;;
31531;SDS011;23787;52.180;5.288;2022-08-19T15:44:00;16.20;;;14.60;;
31531;SDS011;23787;52.180;5.288;2022-08-19T15:48:59;16.20;;;14.60;;
31531;SDS011;23787;52.180;5.288;2022-08-19T15:53:58;18.60;;;17.00;;
31531;SDS011;23787;52.180;5.288;2022-08-19T15:58:58;18.60;;;17.00;;
31531;SDS011;23787;52.180;5.288;2022-08-19T16:09:00;15.10;;;13.60;;
31531;SDS011;23787;52.180;5.288;2022-08-19T16:14:00;15.10;;;13.60;;
31531;SDS011;23787;52.180;5.288;2022-08-19T16:19:01;15.10;;;13.60;;
31531;SDS011;23787;52.180;5.288;2022-08-19T16:24:00;25.40;;;22.60;;
31531;SDS011;23787;52.180;5.288;2022-08-19T16:29:00;25.40;;;22.60;;
31531;SDS011;23787;52.180;5.288;2022-08-19T16:33:59;25.40;;;22.60;;
31531;SDS011;23787;52.180;5.288;2022-08-19T16:38:59;18.90;;;17.50;;
31531;SDS011;23787;52.180;5.288;2022-08-19T16:43:58;18.90;;;17.50;;
31531;SDS011;23787;52.180;5.288;2022-08-19T16:48:58;18.90;;;17.50;;
31531;SDS011;23787;52.180;5.288;2022-08-19T16:53:59;26.10;;;23.50;;
31531;SDS011;23787;52.180;5.288;2022-08-19T16:58:58;26.10;;;23.50;;
31531;SDS011;23787;52.180;5.288;2022-08-19T17:03:58;26.10;;;23.50;;
31531;SDS011;23787;52.180;5.288;2022-08-19T17:09:00;24.60;;;22.10;;
31531;SDS011;23787;52.180;5.288;2022-08-19T17:13:59;24.60;;;22.10;;
31531;SDS011;23787;52.180;5.288;2022-08-19T17:19:00;24.60;;;22.10;;
31531;SDS011;23787;52.180;5.288;2022-08-19T17:24:00;26.20;;;23.90;;
31531;SDS011;23787;52.180;5.288;2022-08-19T17:33:59;26.20;;;23.90;;
31531;SDS011;23787;52.180;5.288;2022-08-19T17:38:59;28.30;;;21.70;;
31531;SDS011;23787;52.180;5.288;2022-08-19T17:43:58;28.30;;;21.70;;
31531;SDS011;23787;52.180;5.288;2022-08-19T17:48:59;28.30;;;21.70;;
31531;SDS011;23787;52.180;5.288;2022-08-19T17:53:59;24.80;;;22.60;;
31531;SDS011;23787;52.180;5.288;2022-08-19T17:58:59;24.80;;;22.60;;
31531;SDS011;23787;52.180;5.288;2022-08-19T18:03:59;24.80;;;22.60;;
31531;SDS011;23787;52.180;5.288;2022-08-19T18:08:58;32.00;;;28.90;;
31531;SDS011;23787;52.180;5.288;2022-08-19T18:13:59;32.00;;;28.90;;
31531;SDS011;23787;52.180;5.288;2022-08-19T18:18:58;32.00;;;28.90;;
31531;SDS011;23787;52.180;5.288;2022-08-19T18:28:58;37.70;;;34.20;;
31531;SDS011;23787;52.180;5.288;2022-08-19T18:33:58;37.70;;;34.20;;
31531;SDS011;23787;52.180;5.288;2022-08-19T18:43:59;35.10;;;31.30;;
31531;SDS011;23787;52.180;5.288;2022-08-19T18:48:58;35.10;;;31.30;;
31531;SDS011;23787;52.180;5.288;2022-08-19T18:53:59;32.30;;;29.10;;
31531;SDS011;23787;52.180;5.288;2022-08-19T18:58:59;32.30;;;29.10;;
31531;SDS011;23787;52.180;5.288;2022-08-19T19:04:01;32.30;;;29.10;;
31531;SDS011;23787;52.180;5.288;2022-08-19T19:08:59;46.90;;;42.50;;
31531;SDS011;23787;52.180;5.288;2022-08-19T19:13:59;46.90;;;42.50;;
31531;SDS011;23787;52.180;5.288;2022-08-19T19:18:58;46.90;;;42.50;;
31531;SDS011;23787;52.180;5.288;2022-08-19T19:23:59;44.70;;;39.90;;
31531;SDS011;23787;52.180;5.288;2022-08-19T19:28:58;44.70;;;39.90;;
31531;SDS011;23787;52.180;5.288;2022-08-19T19:38:59;52.00;;;46.80;;
31531;SDS011;23787;52.180;5.288;2022-08-19T19:43:58;52.00;;;46.80;;
31531;SDS011;23787;52.180;5.288;2022-08-19T19:48:59;52.00;;;46.80;;
31531;SDS011;23787;52.180;5.288;2022-08-19T19:53:59;48.60;;;43.30;;
31531;SDS011;23787;52.180;5.288;2022-08-19T19:58:59;48.60;;;43.30;;
31531;SDS011;23787;52.180;5.288;2022-08-19T20:03:59;48.60;;;43.30;;
31531;SDS011;23787;52.180;5.288;2022-08-19T20:14:01;64.10;;;58.10;;
31531;SDS011;23787;52.180;5.288;2022-08-19T20:19:00;64.10;;;58.10;;
31531;SDS011;23787;52.180;5.288;2022-08-19T20:38:59;62.00;;;55.80;;
31531;SDS011;23787;52.180;5.288;2022-08-19T20:48:59;62.00;;;55.80;;
31531;SDS011;23787;52.180;5.288;2022-08-19T20:53:58;76.10;;;68.60;;
31531;SDS011;23787;52.180;5.288;2022-08-19T21:03:58;76.10;;;68.60;;
31531;SDS011;23787;52.180;5.288;2022-08-19T21:08:58;79.20;;;71.90;;
31531;SDS011;23787;52.180;5.288;2022-08-19T21:13:59;79.20;;;71.90;;
31531;SDS011;23787;52.180;5.288;2022-08-19T21:28:59;93.40;;;83.60;;
31531;SDS011;23787;52.180;5.288;2022-08-19T21:33:58;93.40;;;83.60;;
31531;SDS011;23787;52.180;5.288;2022-08-19T21:38:59;109.90;;;99.50;;
31531;SDS011;23787;52.180;5.288;2022-08-19T21:43:59;109.90;;;99.50;;
31531;SDS011;23787;52.180;5.288;2022-08-19T21:48:59;109.90;;;99.50;;
31531;SDS011;23787;52.180;5.288;2022-08-19T21:58:59;88.90;;;80.90;;
31531;SDS011;23787;52.180;5.288;2022-08-19T22:03:59;88.90;;;80.90;;
31531;SDS011;23787;52.180;5.288;2022-08-19T22:18:59;99.20;;;90.10;;
31531;SDS011;23787;52.180;5.288;2022-08-19T22:33:59;97.80;;;89.00;;
31531;SDS011;23787;52.180;5.288;2022-08-19T22:38:59;123.80;;;112.10;;
31531;SDS011;23787;52.180;5.288;2022-08-19T22:43:59;123.80;;;112.10;;
31531;SDS011;23787;52.180;5.288;2022-08-19T22:48:59;123.80;;;112.10;;
31531;SDS011;23787;52.180;5.288;2022-08-19T22:53:59;119.00;;;107.70;;
31531;SDS011;23787;52.180;5.288;2022-08-19T22:58:59;119.00;;;107.70;;
31531;SDS011;23787;52.180;5.288;2022-08-19T23:03:59;119.00;;;107.70;;
31531;SDS011;23787;52.180;5.288;2022-08-19T23:08:59;96.60;;;87.30;;
31531;SDS011;23787;52.180;5.288;2022-08-19T23:13:59;96.60;;;87.30;;
31531;SDS011;23787;52.180;5.288;2022-08-19T23:23:59;101.50;;;92.20;;
31531;SDS011;23787;52.180;5.288;2022-08-19T23:28:59;101.50;;;92.20;;
31531;SDS011;23787;52.180;5.288;2022-08-19T23:48:59;110.40;;;99.40;;
31531;SDS011;23787;52.180;5.288;2022-08-19T23:53:59;125.60;;;113.70;;
